createdAt,value
2023-05-18T00:00:56.476Z,100343.31
2023-05-18T00:01:59.868Z,100346.18
2023-05-18T00:03:02.278Z,100354.97
2023-05-18T00:04:04.764Z,100349.81
2023-05-18T00:05:07.777Z,100347.70
2023-05-18T00:06:10.569Z,100346.18
2023-05-18T00:07:12.791Z,100344.27
2023-05-18T00:08:15.139Z,100347.42
2023-05-18T00:09:17.899Z,100349.08
2023-05-18T00:10:20.108Z,100348.31
2023-05-18T00:11:22.530Z,100349.23
2023-05-18T00:12:25.143Z,100357.26
2023-05-18T00:13:27.438Z,100349.52
2023-05-18T00:14:29.848Z,100352.20
2023-05-18T00:15:31.998Z,100348.47
2023-05-18T00:16:34.647Z,100354.77
2023-05-18T00:17:37.118Z,100353.05
2023-05-18T00:18:39.642Z,100362.98
2023-05-18T00:19:41.926Z,100355.92
2023-05-18T00:20:44.434Z,100356.97
2023-05-18T00:21:47.936Z,100354.01
2023-05-18T00:22:50.253Z,100358.22
2023-05-18T00:23:52.956Z,100354.68
2023-05-18T00:24:55.163Z,100355.73
2023-05-18T00:25:58.253Z,100360.03
2023-05-18T00:27:00.878Z,100356.49
2023-05-18T00:28:03.317Z,100353.05
2023-05-18T00:29:06.471Z,100353.05
2023-05-18T00:30:09.932Z,100352.96
2023-05-18T00:31:12.175Z,100362.22
2023-05-18T00:32:16.383Z,100352.70
2023-05-18T00:33:18.932Z,100357.83
2023-05-18T00:34:21.228Z,100354.42
2023-05-18T00:35:24.077Z,100359.77
2023-05-18T00:36:26.549Z,100357.83
2023-05-18T00:37:28.758Z,100352.70
2023-05-18T00:38:31.692Z,100355.16
2023-05-18T00:39:33.783Z,100358.14
2023-05-18T00:40:39.320Z,100350.03
2023-05-18T00:41:41.564Z,100358.05
2023-05-18T00:42:43.765Z,100353.66
2023-05-18T00:43:46.233Z,100352.03
2023-05-18T00:44:48.481Z,100351.55
2023-05-18T00:45:51.683Z,100356.89
2023-05-18T00:46:53.987Z,100351.77
2023-05-18T00:47:56.799Z,100353.67
2023-05-18T00:48:59.219Z,100349.56
2023-05-18T00:50:01.628Z,100350.42
2023-05-18T00:51:05.338Z,100354.45
2023-05-18T00:52:07.659Z,100353.09
2023-05-18T00:53:09.825Z,100348.43
2023-05-18T00:54:11.979Z,100359.02
2023-05-18T00:55:14.422Z,100349.10
2023-05-18T00:56:17.294Z,100348.43
2023-05-18T00:57:19.591Z,100351.19
2023-05-18T00:58:22.401Z,100345.84
2023-05-18T00:59:25.254Z,100352.05
2023-05-18T01:00:28.491Z,100347.75
2023-05-18T01:01:32.835Z,100349.66
2023-05-18T01:02:35.155Z,100347.56
2023-05-18T01:03:38.368Z,100352.05
2023-05-18T01:04:41.242Z,100351.78
2023-05-18T01:05:44.715Z,100348.52
2023-05-18T01:06:47.630Z,100343.76
2023-05-18T01:07:49.918Z,100354.63
2023-05-18T01:08:54.372Z,100350.42
2023-05-18T01:09:56.920Z,100355.19
2023-05-18T01:11:08.967Z,100343.64
2023-05-18T01:15:07.415Z,100343.76
2023-05-18T01:16:13.998Z,100346.62
2023-05-18T01:20:17.046Z,100339.55
2023-05-18T01:21:44.036Z,100350.50
2023-05-18T01:23:08.226Z,100349.46
2023-05-18T01:24:30.924Z,100348.52
2023-05-18T01:25:48.712Z,100353.45
2023-05-18T01:26:52.485Z,100358.71
2023-05-18T01:27:56.787Z,100353.28
2023-05-18T01:29:01.653Z,100351.19
2023-05-18T01:30:05.901Z,100360.14
2023-05-18T01:31:09.180Z,100347.16
2023-05-18T01:32:19.200Z,100359.55
2023-05-18T01:33:21.556Z,100361.27
2023-05-18T01:34:24.042Z,100357.84
2023-05-18T01:35:26.953Z,100362.23
2023-05-18T01:36:29.224Z,100361.55
2023-05-18T01:37:31.532Z,100360.72
2023-05-18T01:38:34.678Z,100359.73
2023-05-18T01:39:37.647Z,100361.84
2023-05-18T01:41:43.295Z,100365.66
2023-05-18T01:42:49.333Z,100370.72
2023-05-18T01:44:01.228Z,100377.00
2023-05-18T01:45:10.110Z,100371.94
2023-05-18T01:46:22.583Z,100377.09
2023-05-18T01:47:28.226Z,100369.35
2023-05-18T01:48:34.205Z,100372.11
2023-05-18T01:49:58.378Z,100374.04
2023-05-18T01:51:01.465Z,100372.50
2023-05-18T01:53:25.503Z,100369.44
2023-05-18T01:54:30.143Z,100367.98
2023-05-18T01:55:34.982Z,100375.98
2023-05-18T01:56:39.492Z,100376.16
2023-05-18T01:57:44.785Z,100371.86
2023-05-18T01:58:50.115Z,100381.76
2023-05-18T01:59:54.812Z,100377.20
2023-05-18T02:00:57.495Z,100381.84
2023-05-18T02:02:01.230Z,100380.21
2023-05-18T02:03:04.100Z,100377.28
2023-05-18T02:04:09.802Z,100378.28
2023-05-18T02:05:12.775Z,100378.40
2023-05-18T02:06:15.875Z,100380.95
2023-05-18T02:07:18.249Z,100381.16
2023-05-18T02:08:20.482Z,100381.16
2023-05-18T02:09:23.248Z,100383.91
2023-05-18T02:10:27.370Z,100379.86
2023-05-18T02:11:30.045Z,100381.33
2023-05-18T02:12:33.047Z,100376.25
2023-05-18T02:13:36.339Z,100386.84
2023-05-18T02:14:38.681Z,100387.53
2023-05-18T02:15:41.423Z,100389.42
2023-05-18T02:16:44.049Z,100388.39
2023-05-18T02:17:46.567Z,100392.86
2023-05-18T02:18:49.022Z,100388.39
2023-05-18T02:19:51.597Z,100394.06
2023-05-18T02:21:00.285Z,100394.06
2023-05-18T02:22:02.745Z,100395.02
2023-05-18T02:23:05.008Z,100390.63
2023-05-18T02:24:08.229Z,100388.90
2023-05-18T02:25:10.605Z,100388.24
2023-05-18T02:26:13.209Z,100384.11
2023-05-18T02:27:16.312Z,100387.55
2023-05-18T02:28:18.824Z,100381.70
2023-05-18T02:29:21.125Z,100390.56
2023-05-18T02:30:24.195Z,100386.25
2023-05-18T02:31:27.258Z,100394.00
2023-05-18T02:32:29.618Z,100397.70
2023-05-18T02:33:32.194Z,100395.31
2023-05-18T02:34:34.503Z,100393.31
2023-05-18T02:35:36.887Z,100394.45
2023-05-18T02:36:39.240Z,100398.93
2023-05-18T02:37:41.992Z,100396.09
2023-05-18T02:38:44.928Z,100395.11
2023-05-18T02:39:47.200Z,100399.34
2023-05-18T02:40:49.757Z,100394.95
2023-05-18T02:41:52.149Z,100400.28
2023-05-18T02:42:54.666Z,100402.09
2023-05-18T02:43:57.072Z,100413.05
2023-05-18T02:44:59.528Z,100412.84
2023-05-18T02:46:03.034Z,100418.02
2023-05-18T02:47:05.754Z,100411.73
2023-05-18T02:48:08.002Z,100409.92
2023-05-18T02:49:10.270Z,100422.48
2023-05-18T02:50:12.955Z,100413.53
2023-05-18T02:51:15.566Z,100417.84
2023-05-18T02:52:19.129Z,100415.09
2023-05-18T02:53:21.595Z,100414.23
2023-05-18T02:54:24.209Z,100413.37
2023-05-18T02:55:26.577Z,100413.97
2023-05-18T02:56:34.054Z,100412.17
2023-05-18T02:57:38.600Z,100419.19
2023-05-18T02:58:43.276Z,100416.53
2023-05-18T02:59:47.415Z,100419.39
2023-05-18T03:00:50.189Z,100417.67
2023-05-18T03:01:53.620Z,100418.53
2023-05-18T03:02:56.243Z,100420.05
2023-05-18T03:03:58.583Z,100414.84
2023-05-18T03:05:00.992Z,100412.83
2023-05-18T03:06:04.471Z,100413.86
2023-05-18T03:07:06.942Z,100409.13
2023-05-18T03:08:09.796Z,100405.52
2023-05-18T03:09:12.074Z,100404.57
2023-05-18T03:10:17.314Z,100406.29
2023-05-18T03:11:20.693Z,100418.52
2023-05-18T03:12:23.680Z,100413.17
2023-05-18T03:13:26.253Z,100414.04
2023-05-18T03:14:28.527Z,100418.31
2023-05-18T03:15:32.072Z,100421.79
2023-05-18T03:16:35.997Z,100420.84
2023-05-18T03:17:38.524Z,100425.06
2023-05-18T03:18:41.427Z,100422.22
2023-05-18T03:19:44.194Z,100431.95
2023-05-18T03:20:47.893Z,100430.88
2023-05-18T03:21:50.119Z,100434.33
2023-05-18T03:22:52.531Z,100427.95
2023-05-18T03:23:55.264Z,100427.78
2023-05-18T03:24:57.560Z,100434.67
2023-05-18T03:26:00.645Z,100432.77
2023-05-18T03:27:03.224Z,100429.89
2023-05-18T03:28:05.879Z,100432.39
2023-05-18T03:29:08.607Z,100432.22
2023-05-18T03:30:11.765Z,100429.38
2023-05-18T03:31:14.145Z,100424.69
2023-05-18T03:32:16.528Z,100427.36
2023-05-18T03:33:18.920Z,100431.57
2023-05-18T03:34:21.321Z,100428.81
2023-05-18T03:35:23.660Z,100429.59
2023-05-18T03:36:26.567Z,100430.27
2023-05-18T03:37:28.702Z,100430.17
2023-05-18T03:38:31.239Z,100431.87
2023-05-18T03:39:35.381Z,100431.69
2023-05-18T03:40:37.986Z,100432.38
2023-05-18T03:41:40.984Z,100431.34
2023-05-18T03:42:43.329Z,100435.55
2023-05-18T03:43:45.648Z,100437.23
2023-05-18T03:44:47.886Z,100440.50
2023-05-18T03:45:50.529Z,100438.59
2023-05-18T03:46:53.188Z,100437.55
2023-05-18T03:47:55.982Z,100436.52
2023-05-18T03:49:00.980Z,100440.91
2023-05-18T03:50:06.854Z,100438.02
2023-05-18T03:51:09.474Z,100437.84
2023-05-18T03:52:11.842Z,100441.28
2023-05-18T03:53:13.953Z,100440.16
2023-05-18T03:54:16.216Z,100444.55
2023-05-18T03:55:18.451Z,100445.19
2023-05-18T03:56:20.981Z,100442.42
2023-05-18T03:57:23.273Z,100443.20
2023-05-18T03:58:25.674Z,100434.99
2023-05-18T03:59:27.990Z,100442.83
2023-05-18T04:00:30.402Z,100437.30
2023-05-18T04:01:32.530Z,100433.64
2023-05-18T04:02:34.912Z,100441.47
2023-05-18T04:03:38.991Z,100436.80
2023-05-18T04:04:41.492Z,100444.73
2023-05-18T04:05:44.840Z,100445.44
2023-05-18T04:06:47.226Z,100440.95
2023-05-18T04:07:50.292Z,100440.73
2023-05-18T04:08:53.168Z,100440.64
2023-05-18T04:09:56.103Z,100444.17
2023-05-18T04:10:58.645Z,100442.17
2023-05-18T04:12:01.431Z,100443.80
2023-05-18T04:13:03.634Z,100438.27
2023-05-18T04:14:06.709Z,100443.39
2023-05-18T04:15:10.184Z,100441.48
2023-05-18T04:16:13.591Z,100442.25
2023-05-18T04:17:17.186Z,100454.48
2023-05-18T04:18:19.985Z,100442.63
2023-05-18T04:19:22.396Z,100453.11
2023-05-18T04:20:24.777Z,100441.36
2023-05-18T04:21:27.134Z,100451.88
2023-05-18T04:22:29.419Z,100457.99
2023-05-18T04:23:32.400Z,100462.20
2023-05-18T04:24:34.693Z,100454.90
2023-05-18T04:25:38.012Z,100462.64
2023-05-18T04:26:41.206Z,100461.59
2023-05-18T04:27:43.898Z,100456.91
2023-05-18T04:28:46.477Z,100460.34
2023-05-18T04:29:48.888Z,100463.66
2023-05-18T04:30:51.767Z,100461.65
2023-05-18T04:31:57.818Z,100459.73
2023-05-18T04:33:00.265Z,100451.51
2023-05-18T04:34:03.192Z,100462.12
2023-05-18T04:35:09.800Z,100463.70
2023-05-18T04:36:12.713Z,100459.12
2023-05-18T04:37:14.955Z,100464.28
2023-05-18T04:38:17.089Z,100461.41
2023-05-18T04:39:19.822Z,100461.30
2023-05-18T04:40:22.165Z,100467.42
2023-05-18T04:41:25.702Z,100458.11
2023-05-18T04:42:28.445Z,100471.39
2023-05-18T04:43:31.578Z,100464.98
2023-05-18T04:44:35.048Z,100470.91
2023-05-18T04:45:37.409Z,100473.35
2023-05-18T04:46:40.882Z,100481.09
2023-05-18T04:48:54.795Z,100468.52
2023-05-18T04:49:57.162Z,100476.23
2023-05-18T04:50:59.447Z,100471.50
2023-05-18T04:52:02.197Z,100479.23
2023-05-18T04:53:05.388Z,100470.14
2023-05-18T04:54:07.953Z,100473.48
2023-05-18T04:55:10.378Z,100477.64
2023-05-18T04:56:13.587Z,100473.80
2023-05-18T04:57:16.006Z,100473.59
2023-05-18T04:58:18.651Z,100469.86
2023-05-18T04:59:21.104Z,100479.28
2023-05-18T05:00:28.331Z,100475.43
2023-05-18T05:01:30.714Z,100481.45
2023-05-18T05:02:33.024Z,100476.74
2023-05-18T05:03:35.202Z,100483.59
2023-05-18T05:04:37.997Z,100482.42
2023-05-18T05:05:40.525Z,100482.97
2023-05-18T05:06:43.477Z,100488.84
2023-05-18T05:07:45.912Z,100484.03
2023-05-18T05:08:48.470Z,100481.91
2023-05-18T05:09:50.915Z,100479.84
2023-05-18T05:10:55.554Z,100481.24
2023-05-18T05:11:57.893Z,100481.65
2023-05-18T05:13:00.294Z,100485.73
2023-05-18T05:14:02.647Z,100480.80
2023-05-18T05:15:05.464Z,100491.30
2023-05-18T05:16:08.459Z,100490.80
2023-05-18T05:17:10.489Z,100484.25
2023-05-18T05:18:13.149Z,100480.36
2023-05-18T05:19:15.346Z,100489.80
2023-05-18T05:20:18.268Z,100485.83
2023-05-18T05:21:20.521Z,100474.84
2023-05-18T05:22:23.608Z,100483.54
2023-05-18T05:23:26.504Z,100477.95
2023-05-18T05:24:29.211Z,100485.69
2023-05-18T05:25:32.838Z,100485.44
2023-05-18T05:26:36.925Z,100483.50
2023-05-18T05:27:39.834Z,100492.09
2023-05-18T05:28:42.346Z,100492.73
2023-05-18T05:29:48.487Z,100492.36
2023-05-18T05:30:50.780Z,100490.95
2023-05-18T05:31:53.378Z,100485.11
2023-05-18T05:32:55.775Z,100483.70
2023-05-18T05:33:57.953Z,100489.59
2023-05-18T05:35:00.838Z,100486.66
2023-05-18T05:36:03.553Z,100494.27
2023-05-18T05:37:05.917Z,100490.39
2023-05-18T05:38:08.211Z,100491.84
2023-05-18T05:39:11.091Z,100488.11
2023-05-18T05:40:13.958Z,100491.31
2023-05-18T05:41:20.690Z,100483.88
2023-05-18T05:42:22.779Z,100481.68
2023-05-18T05:43:25.125Z,100495.64
2023-05-18T05:44:27.868Z,100489.77
2023-05-18T05:45:29.974Z,100485.89
2023-05-18T05:46:34.502Z,100487.14
2023-05-18T05:47:37.481Z,100490.58
2023-05-18T05:48:40.081Z,100489.22
2023-05-18T05:49:42.504Z,100490.83
2023-05-18T05:50:45.147Z,100488.88
2023-05-18T05:51:48.838Z,100491.07
2023-05-18T05:52:53.133Z,100495.13
2023-05-18T05:53:56.303Z,100495.75
2023-05-18T05:54:58.729Z,100498.92
2023-05-18T05:56:01.364Z,100498.69
2023-05-18T05:57:05.898Z,100493.07
2023-05-18T05:58:09.018Z,100499.94
2023-05-18T05:59:11.342Z,100502.13
2023-05-18T06:00:16.452Z,100500.91
2023-05-18T06:01:23.548Z,100505.00
2023-05-18T06:02:26.697Z,100500.20
2023-05-18T06:03:30.128Z,100501.67
2023-05-18T06:04:34.424Z,100501.44
2023-05-18T06:05:37.354Z,100508.30
2023-05-18T06:06:41.919Z,100500.69
2023-05-18T06:07:44.167Z,100506.34
2023-05-18T06:08:46.470Z,100505.08
2023-05-18T06:09:48.750Z,100508.28
2023-05-18T06:10:51.787Z,100502.41
2023-05-18T06:11:54.468Z,100502.50
2023-05-18T06:12:57.226Z,100511.94
2023-05-18T06:14:01.821Z,100506.02
2023-05-18T06:15:05.490Z,100509.20
2023-05-18T06:16:08.488Z,100505.28
2023-05-18T06:17:10.759Z,100506.72
2023-05-18T06:18:13.835Z,100506.59
2023-05-18T06:19:16.782Z,100509.91
2023-05-18T06:20:19.227Z,100503.98
2023-05-18T06:21:22.079Z,100509.16
2023-05-18T06:22:24.261Z,100503.27
2023-05-18T06:23:28.831Z,100496.77
2023-05-18T06:24:37.313Z,100498.20
2023-05-18T06:25:58.049Z,100511.31
2023-05-18T06:28:40.238Z,100510.38
2023-05-18T06:30:02.589Z,100511.73
2023-05-18T06:31:13.101Z,100510.94
2023-05-18T06:32:19.925Z,100513.00
2023-05-18T06:33:26.185Z,100512.34
2023-05-18T06:34:29.313Z,100509.98
2023-05-18T06:35:31.927Z,100505.19
2023-05-18T06:36:34.571Z,100506.61
2023-05-18T06:37:36.812Z,100511.75
2023-05-18T06:38:39.026Z,100506.09
2023-05-18T06:39:41.391Z,100507.55
2023-05-18T06:40:43.843Z,100508.87
2023-05-18T06:41:46.519Z,100504.06
2023-05-18T06:42:50.785Z,100509.94
2023-05-18T06:43:57.615Z,100500.55
2023-05-18T06:45:23.810Z,100507.41
2023-05-18T06:46:28.701Z,100507.02
2023-05-18T06:47:32.944Z,100503.75
2023-05-18T06:48:36.139Z,100505.46
2023-05-18T06:49:38.683Z,100503.36
2023-05-18T06:50:41.828Z,100512.91
2023-05-18T06:51:44.900Z,100508.92
2023-05-18T06:52:47.975Z,100510.36
2023-05-18T06:53:50.432Z,100502.13
2023-05-18T06:54:52.841Z,100501.73
2023-05-18T06:55:55.669Z,100502.28
2023-05-18T06:56:58.121Z,100504.59
2023-05-18T06:58:00.884Z,100498.78
2023-05-18T06:59:03.639Z,100504.77
2023-05-18T07:00:07.347Z,100504.34
2023-05-18T07:01:11.470Z,100498.80
2023-05-18T07:02:13.898Z,100503.94
2023-05-18T07:03:16.945Z,100497.40
2023-05-18T07:04:19.339Z,100498.84
2023-05-18T07:05:21.525Z,100499.42
2023-05-18T07:06:24.327Z,100507.98
2023-05-18T07:07:26.573Z,100504.29
2023-05-18T07:08:28.679Z,100507.41
2023-05-18T07:09:31.104Z,100506.14
2023-05-18T07:10:33.623Z,100516.55
2023-05-18T07:11:35.897Z,100507.17
2023-05-18T07:12:38.213Z,100509.44
2023-05-18T07:13:40.514Z,100500.05
2023-05-18T07:14:42.826Z,100504.19
2023-05-18T07:15:45.953Z,100502.03
2023-05-18T07:16:48.271Z,100504.33
2023-05-18T07:17:51.493Z,100504.05
2023-05-18T07:18:53.833Z,100498.36
2023-05-18T07:19:56.202Z,100503.49
2023-05-18T07:20:59.102Z,100503.18
2023-05-18T07:22:03.529Z,100500.91
2023-05-18T07:23:05.662Z,100500.63
2023-05-18T07:24:08.392Z,100502.34
2023-05-18T07:25:10.683Z,100499.50
2023-05-18T07:26:13.205Z,100508.16
2023-05-18T07:27:15.478Z,100505.17
2023-05-18T07:28:17.831Z,100507.48
2023-05-18T07:29:20.125Z,100511.77
2023-05-18T07:30:22.682Z,100506.89
2023-05-18T07:31:27.263Z,100516.59
2023-05-18T07:32:30.094Z,100519.73
2023-05-18T07:33:32.790Z,100513.03
2023-05-18T07:34:34.947Z,100511.72
2023-05-18T07:35:37.371Z,100508.58
2023-05-18T07:36:39.624Z,100513.58
2023-05-18T07:37:42.189Z,100514.97
2023-05-18T07:38:44.590Z,100513.69
2023-05-18T07:39:47.795Z,100513.69
2023-05-18T07:40:50.127Z,100518.10
2023-05-18T07:41:52.858Z,100517.10
2023-05-18T07:42:55.665Z,100514.25
2023-05-18T07:43:58.041Z,100515.11
2023-05-18T07:45:00.367Z,100517.53
2023-05-18T07:46:04.951Z,100511.11
2023-05-18T07:47:07.431Z,100509.08
2023-05-18T07:49:21.248Z,100512.17
2023-05-18T07:50:23.722Z,100511.92
2023-05-18T07:51:25.763Z,100509.07
2023-05-18T07:52:28.410Z,100517.59
2023-05-18T07:53:30.648Z,100525.28
2023-05-18T07:54:32.921Z,100525.00
2023-05-18T07:55:35.048Z,100524.74
2023-05-18T07:56:38.147Z,100521.70
2023-05-18T07:57:40.465Z,100522.41
2023-05-18T07:58:42.563Z,100525.13
2023-05-18T07:59:45.767Z,100522.41
2023-05-18T08:00:48.255Z,100519.41
2023-05-18T08:01:50.536Z,100518.27
2023-05-18T08:02:55.065Z,100521.84
2023-05-18T08:03:57.708Z,100514.41
2023-05-18T08:04:59.906Z,100519.51
2023-05-18T08:06:02.291Z,100518.22
2023-05-18T08:07:04.676Z,100520.62
2023-05-18T08:08:07.203Z,100513.91
2023-05-18T08:09:09.520Z,100523.43
2023-05-18T08:10:12.582Z,100512.29
2023-05-18T08:11:15.372Z,100517.41
2023-05-18T08:12:17.694Z,100520.54
2023-05-18T08:13:20.642Z,100518.53
2023-05-18T08:14:22.973Z,100515.64
2023-05-18T08:15:25.771Z,100516.20
2023-05-18T08:16:28.253Z,100518.61
2023-05-18T08:17:30.476Z,100504.75
2023-05-18T08:18:32.762Z,100518.02
2023-05-18T08:19:34.906Z,100516.69
2023-05-18T08:20:37.250Z,100508.39
2023-05-18T08:21:39.644Z,100511.66
2023-05-18T08:22:41.818Z,100515.94
2023-05-18T08:23:44.682Z,100513.78
2023-05-18T08:24:47.088Z,100520.77
2023-05-18T08:25:49.204Z,100512.32
2023-05-18T08:26:52.048Z,100520.02
2023-05-18T08:27:54.393Z,100506.14
2023-05-18T08:28:56.703Z,100506.81
2023-05-18T08:29:59.093Z,100510.08
2023-05-18T08:31:01.475Z,100509.92
2023-05-18T08:33:15.503Z,100505.96
2023-05-18T08:34:18.034Z,100505.90
2023-05-18T08:35:20.096Z,100507.61
2023-05-18T08:36:22.404Z,100510.02
2023-05-18T08:37:24.637Z,100512.39
2023-05-18T08:38:26.835Z,100506.66
2023-05-18T08:39:29.027Z,100505.34
2023-05-18T08:40:34.956Z,100506.91
2023-05-18T08:43:14.055Z,100503.47
2023-05-18T08:44:22.311Z,100503.39
2023-05-18T08:45:43.126Z,100506.66
2023-05-18T08:46:49.938Z,100502.77
2023-05-18T08:47:56.050Z,100511.28
2023-05-18T08:49:00.354Z,100504.69
2023-05-18T08:50:04.597Z,100503.52
2023-05-18T08:51:10.200Z,100501.51
2023-05-18T08:52:16.581Z,100503.21
2023-05-18T08:53:21.170Z,100504.92
2023-05-18T08:55:21.299Z,100483.96
2023-05-18T08:56:25.644Z,100497.50
2023-05-18T08:57:29.673Z,100487.48
2023-05-18T08:58:39.111Z,100500.89
2023-05-18T08:59:43.415Z,100493.44
2023-05-18T09:00:46.269Z,100493.98
2023-05-18T09:01:50.051Z,100491.80
2023-05-18T09:02:53.821Z,100487.06
2023-05-18T09:03:56.966Z,100495.91
2023-05-18T09:04:59.326Z,100492.50
2023-05-18T09:06:04.084Z,100497.08
2023-05-18T09:07:07.313Z,100490.48
2023-05-18T09:08:10.152Z,100487.77
2023-05-18T09:09:14.264Z,100491.84
2023-05-18T09:10:18.926Z,100496.96
2023-05-18T09:11:26.461Z,100482.05
2023-05-18T09:12:31.297Z,100483.41
2023-05-18T09:13:33.906Z,100486.82
2023-05-18T09:14:36.450Z,100492.10
2023-05-18T09:15:38.817Z,100491.95
2023-05-18T09:16:41.253Z,100479.05
2023-05-18T09:17:43.614Z,100482.78
2023-05-18T09:18:46.498Z,100487.90
2023-05-18T09:19:49.504Z,100487.58
2023-05-18T09:20:52.452Z,100482.14
2023-05-18T09:21:54.898Z,100488.94
2023-05-18T09:22:57.768Z,100486.91
2023-05-18T09:24:01.751Z,100486.59
2023-05-18T09:25:07.113Z,100476.41
2023-05-18T09:26:10.904Z,100487.98
2023-05-18T09:27:13.256Z,100487.63
2023-05-18T09:28:36.632Z,100480.17
2023-05-18T09:29:53.758Z,100485.45
2023-05-18T09:30:57.258Z,100495.31
2023-05-18T09:32:06.293Z,100480.17
2023-05-18T09:34:29.678Z,100470.92
2023-05-18T09:35:32.793Z,100486.30
2023-05-18T09:36:35.798Z,100473.56
2023-05-18T09:37:42.806Z,100476.97
2023-05-18T09:38:45.568Z,100475.96
2023-05-18T09:39:59.013Z,100469.34
2023-05-18T09:41:01.683Z,100480.95
2023-05-18T09:42:04.698Z,100472.79
2023-05-18T09:43:07.135Z,100470.07
2023-05-18T09:44:10.160Z,100469.72
2023-05-18T09:45:18.218Z,100475.16
2023-05-18T09:46:20.961Z,100466.34
2023-05-18T09:47:23.403Z,100466.63
2023-05-18T09:48:25.873Z,100457.94
2023-05-18T09:49:31.458Z,100451.27
2023-05-18T09:50:34.138Z,100458.77
2023-05-18T09:51:38.195Z,100463.36
2023-05-18T09:53:56.378Z,100464.28
2023-05-18T09:54:59.105Z,100463.22
2023-05-18T09:56:04.213Z,100462.89
2023-05-18T09:57:11.291Z,100461.56
2023-05-18T09:58:11.570Z,100460.38
2023-05-18T09:59:15.135Z,100462.09
2023-05-18T10:00:21.278Z,100454.78
2023-05-18T10:01:24.955Z,100450.89
2023-05-18T10:02:27.780Z,100449.55
2023-05-18T10:03:35.326Z,100454.63
2023-05-18T10:04:39.527Z,100447.69
2023-05-18T10:05:42.297Z,100449.92
2023-05-18T10:06:50.703Z,100451.27
2023-05-18T10:09:03.128Z,100443.30
2023-05-18T10:10:09.173Z,100447.73
2023-05-18T10:11:11.679Z,100442.98
2023-05-18T10:12:15.510Z,100444.52
2023-05-18T10:13:18.540Z,100445.20
2023-05-18T10:14:25.521Z,100447.56
2023-05-18T10:15:27.754Z,100448.42
2023-05-18T10:16:32.124Z,100445.01
2023-05-18T10:17:36.932Z,100442.29
2023-05-18T10:18:40.780Z,100440.25
2023-05-18T10:19:45.542Z,100444.52
2023-05-18T10:20:49.409Z,100442.31
2023-05-18T10:21:52.936Z,100440.28
2023-05-18T10:22:57.761Z,100447.07
2023-05-18T10:24:03.868Z,100441.63
2023-05-18T10:25:09.770Z,100441.30
2023-05-18T10:26:15.012Z,100439.59
2023-05-18T10:27:19.492Z,100439.92
2023-05-18T10:28:24.836Z,100444.34
2023-05-18T10:29:28.778Z,100439.59
2023-05-18T10:30:32.321Z,100434.83
2023-05-18T10:31:36.877Z,100440.96
2023-05-18T10:32:40.145Z,100439.64
2023-05-18T10:33:44.105Z,100437.41
2023-05-18T10:34:47.788Z,100444.23
2023-05-18T10:35:51.569Z,100442.36
2023-05-18T10:36:55.481Z,100442.19
2023-05-18T10:37:59.426Z,100431.81
2023-05-18T10:39:02.948Z,100439.81
2023-05-18T10:41:20.145Z,100436.41
2023-05-18T10:42:24.998Z,100433.67
2023-05-18T10:43:28.732Z,100433.16
2023-05-18T10:44:31.974Z,100427.55
2023-05-18T10:45:37.197Z,100433.85
2023-05-18T10:46:41.454Z,100430.11
2023-05-18T10:47:44.095Z,100436.89
2023-05-18T10:48:49.430Z,100425.66
2023-05-18T10:49:53.621Z,100435.20
2023-05-18T10:50:57.205Z,100435.20
2023-05-18T10:52:00.436Z,100432.13
2023-05-18T10:54:11.808Z,100428.02
2023-05-18T10:55:14.275Z,100437.25
2023-05-18T10:56:18.911Z,100432.81
2023-05-18T10:57:22.447Z,100437.41
2023-05-18T10:58:27.754Z,100428.39
2023-05-18T10:59:30.062Z,100432.64
2023-05-18T11:00:35.537Z,100431.80
2023-05-18T11:01:40.307Z,100429.72
2023-05-18T11:02:43.341Z,100429.72
2023-05-18T11:03:48.562Z,100423.25
2023-05-18T11:04:54.167Z,100424.27
2023-05-18T11:07:19.552Z,100418.31
2023-05-18T11:08:26.355Z,100425.63
2023-05-18T11:09:29.344Z,100417.80
2023-05-18T11:10:43.017Z,100426.28
2023-05-18T11:11:52.773Z,100416.78
2023-05-18T11:12:54.986Z,100421.89
2023-05-18T11:14:02.642Z,100419.84
2023-05-18T11:15:05.892Z,100416.95
2023-05-18T11:16:08.765Z,100421.38
2023-05-18T11:17:22.835Z,100415.75
2023-05-18T11:18:37.727Z,100420.83
2023-05-18T11:19:40.502Z,100417.93
2023-05-18T11:20:45.177Z,100418.27
2023-05-18T11:21:50.031Z,100414.34
2023-05-18T11:22:58.799Z,100405.98
2023-05-18T11:24:33.197Z,100411.91
2023-05-18T11:25:40.105Z,100417.88
2023-05-18T11:27:58.568Z,100409.80
2023-05-18T11:29:00.733Z,100414.62
2023-05-18T11:30:14.881Z,100423.96
2023-05-18T11:31:07.619Z,100417.31
2023-05-18T11:32:30.113Z,100415.77
2023-05-18T11:33:29.470Z,100417.46
2023-05-18T11:34:43.348Z,100412.53
2023-05-18T11:36:06.478Z,100404.70
2023-05-18T11:37:08.831Z,100405.05
2023-05-18T11:38:11.093Z,100406.75
2023-05-18T11:39:16.852Z,100413.91
2023-05-18T11:42:08.884Z,100402.57
2023-05-18T11:43:25.364Z,100410.81
2023-05-18T11:44:28.609Z,100417.23
2023-05-18T11:45:33.032Z,100411.43
2023-05-18T11:46:36.636Z,100411.11
2023-05-18T11:47:40.007Z,100411.58
2023-05-18T11:48:44.063Z,100409.70
2023-05-18T11:49:48.512Z,100412.25
2023-05-18T11:50:54.928Z,100415.83
2023-05-18T11:52:10.703Z,100417.53
2023-05-18T11:53:16.012Z,100415.83
2023-05-18T11:54:18.619Z,100411.23
2023-05-18T11:55:21.137Z,100412.58
2023-05-18T11:56:25.352Z,100411.38
2023-05-18T11:57:37.197Z,100407.97
2023-05-18T11:58:40.130Z,100394.00
2023-05-18T11:59:44.504Z,100397.30
2023-05-18T12:00:48.599Z,100397.79
2023-05-18T12:01:51.457Z,100397.11
2023-05-18T12:02:55.862Z,100399.66
2023-05-18T12:03:58.275Z,100405.97
2023-05-18T12:05:02.070Z,100400.38
2023-05-18T12:06:06.243Z,100398.14
2023-05-18T12:07:09.225Z,100405.09
2023-05-18T12:08:11.933Z,100396.06
2023-05-18T12:09:14.727Z,100395.70
2023-05-18T12:10:20.415Z,100405.59
2023-05-18T12:11:23.582Z,100404.56
2023-05-18T12:12:26.997Z,100405.91
2023-05-18T12:13:30.199Z,100410.17
2023-05-18T12:14:34.814Z,100401.77
2023-05-18T12:15:37.969Z,100396.31
2023-05-18T12:16:40.796Z,100401.42
2023-05-18T12:17:48.955Z,100400.89
2023-05-18T12:18:51.498Z,100402.41
2023-05-18T12:19:54.268Z,100402.91
2023-05-18T12:20:57.748Z,100403.37
2023-05-18T12:22:00.004Z,100406.42
2023-05-18T12:23:02.314Z,100400.60
2023-05-18T12:24:05.840Z,100406.73
2023-05-18T12:25:09.054Z,100401.73
2023-05-18T12:26:12.754Z,100405.31
2023-05-18T12:27:15.515Z,100398.83
2023-05-18T12:28:18.275Z,100395.24
2023-05-18T12:29:20.609Z,100398.65
2023-05-18T12:30:25.111Z,100402.90
2023-05-18T12:31:28.307Z,100399.81
2023-05-18T12:32:30.501Z,100403.39
2023-05-18T12:33:33.841Z,100398.78
2023-05-18T12:34:37.409Z,100405.45
2023-05-18T12:35:39.840Z,100399.63